Aeroporto :
LOGIN :

Iscrizione | Disclaimer

   EN    FR    IT 

 










Sommario :    VFR   VFR Marginale   IFR   IFR Intensivo   IFR Molto Intensivo
Visibilità : 
Base nubi : 
>= 8 km
>= 3000ft
5 / 8 km
1000 / 3000 ft
1500m / 5 km
500 / 1000 ft
800 / 1500m
200 / 500 ft
< 800m
< 200 ft
Simboli :   Temporali  Nebbia  Neve Forte  Precipitazioni Forti  Vento > 20 kt
SIGMETs :   Varie  Temporali  Ghiacco  Turbolenza  Onda orograficha  Ceneri Vulcaniche






- Altitudine del aeroporto : 1 ft


EGCK - Caernarfon

ULTIMO METAR :
  • 200620Z AUTO 17008KT 9999 FEW024/// 05/04 Q1047

METARs OBSOLETI :
  • 200550Z AUTO 16009KT 9999 SCT022/// 05/04 Q1047
  • 200520Z AUTO 17010KT 9999 BKN022/// 05/04 Q1047
  • 200450Z AUTO 17009KT 9999 BKN023/// 05/04 Q1047
  • 200420Z AUTO 18008KT 9999 FEW023/// 05/04 Q1047
  • 200350Z AUTO 18008KT 9999 FEW024/// 04/03 Q1047

TAF TAF EGCK
Valido dal 20 a 06 ore il 20 a 15 ore UTC


200458Z 2006/2015 19008KT 9999 SCT025



MetMap, La meteo Aeronautica in un colpo d'occhio ! - Copyright ORBIFLY Dicembre 2007 - Disclaimer

ORBIFLY MET'MAP TEAM :

Programmazione e sviluppo : Alexandra Zaïnal
Concezione : Baudouin d'Aumeries
Aiuto per la programmazione : Marc-Olivier Méhu
Supporto tecnico e logistico : Manuel Goepfert
Aiuto per la traduzione : Arnaldo La Scala

Contatto : metmap@orbifly.com




FONTI E CREDITI :

   NOAA